sensor_id;sensor_type;location;lat;lon;timestamp;P1;durP1;ratioP1;P2;durP2;ratioP2
69502;SDS011;56704;54.242;12.442;2023-06-24T00:29:47;9.47;;;3.47;;
69502;SDS011;56704;54.242;12.442;2023-06-24T00:32:15;6.38;;;3.97;;
69502;SDS011;56704;54.242;12.442;2023-06-24T00:43:09;7.10;;;3.70;;
69502;SDS011;56704;54.242;12.442;2023-06-24T00:45:44;6.17;;;3.10;;
69502;SDS011;56704;54.242;12.442;2023-06-24T00:48:22;8.57;;;3.40;;
69502;SDS011;56704;54.242;12.442;2023-06-24T00:50:51;8.35;;;4.10;;
69502;SDS011;56704;54.242;12.442;2023-06-24T00:53:18;8.10;;;3.35;;
69502;SDS011;56704;54.242;12.442;2023-06-24T00:55:50;8.80;;;3.80;;
69502;SDS011;56704;54.242;12.442;2023-06-24T00:58:17;9.37;;;3.90;;
69502;SDS011;56704;54.242;12.442;2023-06-24T01:01:14;9.13;;;3.67;;
69502;SDS011;56704;54.242;12.442;2023-06-24T01:03:42;7.68;;;4.07;;
69502;SDS011;56704;54.242;12.442;2023-06-24T01:29:34;7.57;;;3.90;;
69502;SDS011;56704;54.242;12.442;2023-06-24T01:32:12;8.45;;;3.95;;
69502;SDS011;56704;54.242;12.442;2023-06-24T01:34:44;11.68;;;4.03;;
69502;SDS011;56704;54.242;12.442;2023-06-24T01:37:20;9.18;;;4.05;;
69502;SDS011;56704;54.242;12.442;2023-06-24T01:39:52;9.33;;;4.13;;
69502;SDS011;56704;54.242;12.442;2023-06-24T01:42:34;8.80;;;4.28;;
69502;SDS011;56704;54.242;12.442;2023-06-24T01:45:04;8.57;;;4.50;;
69502;SDS011;56704;54.242;12.442;2023-06-24T01:47:34;8.15;;;4.22;;
69502;SDS011;56704;54.242;12.442;2023-06-24T01:50:02;7.57;;;3.50;;
69502;SDS011;56704;54.242;12.442;2023-06-24T01:57:40;7.47;;;3.88;;
69502;SDS011;56704;54.242;12.442;2023-06-24T02:00:29;9.65;;;4.18;;
69502;SDS011;56704;54.242;12.442;2023-06-24T02:08:09;7.72;;;4.03;;
69502;SDS011;56704;54.242;12.442;2023-06-24T02:11:20;12.73;;;4.80;;
69502;SDS011;56704;54.242;12.442;2023-06-24T03:19:08;8.85;;;4.90;;
69502;SDS011;56704;54.242;12.442;2023-06-24T03:21:34;10.63;;;5.67;;
69502;SDS011;56704;54.242;12.442;2023-06-24T03:24:10;13.63;;;4.85;;
69502;SDS011;56704;54.242;12.442;2023-06-24T03:29:47;10.90;;;4.30;;
69502;SDS011;56704;54.242;12.442;2023-06-24T03:45:24;11.52;;;5.22;;
69502;SDS011;56704;54.242;12.442;2023-06-24T03:47:51;9.47;;;4.63;;
69502;SDS011;56704;54.242;12.442;2023-06-24T03:50:21;11.55;;;5.13;;
69502;SDS011;56704;54.242;12.442;2023-06-24T03:52:50;12.40;;;4.88;;
69502;SDS011;56704;54.242;12.442;2023-06-24T03:55:16;9.43;;;5.00;;
69502;SDS011;56704;54.242;12.442;2023-06-24T03:57:43;9.30;;;5.18;;
69502;SDS011;56704;54.242;12.442;2023-06-24T04:00:10;10.77;;;5.30;;
69502;SDS011;56704;54.242;12.442;2023-06-24T04:02:43;12.85;;;5.10;;
69502;SDS011;56704;54.242;12.442;2023-06-24T04:05:10;11.70;;;5.50;;
69502;SDS011;56704;54.242;12.442;2023-06-24T04:07:38;9.30;;;4.78;;
69502;SDS011;56704;54.242;12.442;2023-06-24T04:10:05;12.00;;;5.32;;
69502;SDS011;56704;54.242;12.442;2023-06-24T04:12:33;12.70;;;5.00;;
69502;SDS011;56704;54.242;12.442;2023-06-24T04:15:01;12.80;;;5.90;;
69502;SDS011;56704;54.242;12.442;2023-06-24T04:17:29;11.05;;;4.50;;
69502;SDS011;56704;54.242;12.442;2023-06-24T04:19:57;8.88;;;5.00;;
69502;SDS011;56704;54.242;12.442;2023-06-24T04:22:24;9.82;;;4.85;;
69502;SDS011;56704;54.242;12.442;2023-06-24T04:24:51;8.50;;;4.80;;
69502;SDS011;56704;54.242;12.442;2023-06-24T04:27:18;9.60;;;5.00;;
69502;SDS011;56704;54.242;12.442;2023-06-24T04:29:45;8.77;;;4.85;;
69502;SDS011;56704;54.242;12.442;2023-06-24T04:32:11;11.93;;;5.25;;
69502;SDS011;56704;54.242;12.442;2023-06-24T04:34:38;12.30;;;4.90;;
69502;SDS011;56704;54.242;12.442;2023-06-24T04:37:07;10.50;;;4.73;;
69502;SDS011;56704;54.242;12.442;2023-06-24T04:39:33;10.48;;;4.68;;
69502;SDS011;56704;54.242;12.442;2023-06-24T04:42:00;9.68;;;4.78;;
69502;SDS011;56704;54.242;12.442;2023-06-24T04:44:27;10.40;;;5.05;;
69502;SDS011;56704;54.242;12.442;2023-06-24T04:46:53;10.90;;;4.63;;
69502;SDS011;56704;54.242;12.442;2023-06-24T04:49:20;10.47;;;4.37;;
69502;SDS011;56704;54.242;12.442;2023-06-24T04:51:47;11.80;;;4.70;;
69502;SDS011;56704;54.242;12.442;2023-06-24T04:54:15;9.20;;;4.65;;
69502;SDS011;56704;54.242;12.442;2023-06-24T04:56:42;12.65;;;4.95;;
69502;SDS011;56704;54.242;12.442;2023-06-24T04:59:10;9.75;;;4.85;;
69502;SDS011;56704;54.242;12.442;2023-06-24T05:01:36;10.73;;;4.03;;
69502;SDS011;56704;54.242;12.442;2023-06-24T05:04:03;12.73;;;5.03;;
69502;SDS011;56704;54.242;12.442;2023-06-24T05:06:30;11.23;;;4.75;;
69502;SDS011;56704;54.242;12.442;2023-06-24T05:08:57;13.93;;;4.85;;
69502;SDS011;56704;54.242;12.442;2023-06-24T05:11:25;10.48;;;4.57;;
69502;SDS011;56704;54.242;12.442;2023-06-24T05:13:51;10.97;;;5.17;;
69502;SDS011;56704;54.242;12.442;2023-06-24T05:16:18;10.70;;;4.10;;
69502;SDS011;56704;54.242;12.442;2023-06-24T05:18:45;7.93;;;3.90;;
69502;SDS011;56704;54.242;12.442;2023-06-24T05:21:11;8.05;;;4.15;;
69502;SDS011;56704;54.242;12.442;2023-06-24T05:23:38;8.88;;;4.55;;
69502;SDS011;56704;54.242;12.442;2023-06-24T05:26:05;9.47;;;4.10;;
69502;SDS011;56704;54.242;12.442;2023-06-24T05:28:33;9.95;;;5.03;;
69502;SDS011;56704;54.242;12.442;2023-06-24T05:30:59;10.18;;;4.70;;
69502;SDS011;56704;54.242;12.442;2023-06-24T05:33:26;9.95;;;4.10;;
69502;SDS011;56704;54.242;12.442;2023-06-24T05:35:53;11.23;;;4.18;;
69502;SDS011;56704;54.242;12.442;2023-06-24T05:38:20;9.20;;;3.80;;
69502;SDS011;56704;54.242;12.442;2023-06-24T05:40:46;8.80;;;4.20;;
69502;SDS011;56704;54.242;12.442;2023-06-24T05:43:13;8.27;;;4.18;;
69502;SDS011;56704;54.242;12.442;2023-06-24T05:45:41;9.85;;;3.78;;
69502;SDS011;56704;54.242;12.442;2023-06-24T05:48:08;7.32;;;3.55;;
69502;SDS011;56704;54.242;12.442;2023-06-24T05:50:35;7.27;;;3.63;;
69502;SDS011;56704;54.242;12.442;2023-06-24T05:53:01;9.50;;;3.95;;
69502;SDS011;56704;54.242;12.442;2023-06-24T05:55:28;11.77;;;4.70;;
69502;SDS011;56704;54.242;12.442;2023-06-24T05:57:55;11.07;;;4.55;;
69502;SDS011;56704;54.242;12.442;2023-06-24T06:00:22;10.65;;;4.97;;
69502;SDS011;56704;54.242;12.442;2023-06-24T06:02:50;8.47;;;3.70;;
69502;SDS011;56704;54.242;12.442;2023-06-24T06:05:16;7.63;;;3.50;;
69502;SDS011;56704;54.242;12.442;2023-06-24T06:07:43;8.52;;;3.90;;
69502;SDS011;56704;54.242;12.442;2023-06-24T06:10:10;9.60;;;3.88;;
69502;SDS011;56704;54.242;12.442;2023-06-24T06:12:37;7.25;;;3.70;;
69502;SDS011;56704;54.242;12.442;2023-06-24T06:15:04;9.17;;;4.30;;
69502;SDS011;56704;54.242;12.442;2023-06-24T06:17:31;9.15;;;4.13;;
69502;SDS011;56704;54.242;12.442;2023-06-24T06:19:59;11.07;;;3.92;;
69502;SDS011;56704;54.242;12.442;2023-06-24T06:22:26;7.22;;;3.85;;
69502;SDS011;56704;54.242;12.442;2023-06-24T06:24:57;7.18;;;4.10;;
69502;SDS011;56704;54.242;12.442;2023-06-24T06:27:24;8.13;;;3.83;;
69502;SDS011;56704;54.242;12.442;2023-06-24T06:29:50;10.18;;;4.05;;
69502;SDS011;56704;54.242;12.442;2023-06-24T06:34:52;8.85;;;3.90;;
69502;SDS011;56704;54.242;12.442;2023-06-24T06:37:20;8.25;;;3.80;;
69502;SDS011;56704;54.242;12.442;2023-06-24T06:39:47;10.47;;;4.57;;
69502;SDS011;56704;54.242;12.442;2023-06-24T06:42:13;8.05;;;4.10;;
69502;SDS011;56704;54.242;12.442;2023-06-24T06:44:40;8.60;;;3.83;;
69502;SDS011;56704;54.242;12.442;2023-06-24T06:47:07;12.00;;;4.40;;
69502;SDS011;56704;54.242;12.442;2023-06-24T06:49:34;9.52;;;4.32;;
69502;SDS011;56704;54.242;12.442;2023-06-24T06:52:01;8.60;;;4.00;;
69502;SDS011;56704;54.242;12.442;2023-06-24T06:54:29;9.50;;;4.10;;
69502;SDS011;56704;54.242;12.442;2023-06-24T06:56:59;10.73;;;4.00;;
69502;SDS011;56704;54.242;12.442;2023-06-24T06:59:26;9.55;;;4.35;;
69502;SDS011;56704;54.242;12.442;2023-06-24T07:01:53;9.95;;;4.18;;
69502;SDS011;56704;54.242;12.442;2023-06-24T07:04:20;8.80;;;4.13;;
69502;SDS011;56704;54.242;12.442;2023-06-24T07:06:46;8.80;;;4.25;;
69502;SDS011;56704;54.242;12.442;2023-06-24T07:09:13;9.60;;;3.83;;
69502;SDS011;56704;54.242;12.442;2023-06-24T07:11:41;7.82;;;4.13;;
69502;SDS011;56704;54.242;12.442;2023-06-24T07:14:08;10.10;;;4.57;;
69502;SDS011;56704;54.242;12.442;2023-06-24T07:22:54;7.53;;;4.15;;
69502;SDS011;56704;54.242;12.442;2023-06-24T07:25:21;8.20;;;4.30;;
69502;SDS011;56704;54.242;12.442;2023-06-24T07:30:59;10.20;;;4.03;;
69502;SDS011;56704;54.242;12.442;2023-06-24T07:33:26;8.25;;;4.00;;
69502;SDS011;56704;54.242;12.442;2023-06-24T07:35:55;9.07;;;4.40;;
69502;SDS011;56704;54.242;12.442;2023-06-24T07:38:22;8.82;;;3.90;;
69502;SDS011;56704;54.242;12.442;2023-06-24T07:40:48;6.65;;;4.03;;
69502;SDS011;56704;54.242;12.442;2023-06-24T07:43:15;8.73;;;4.57;;
69502;SDS011;56704;54.242;12.442;2023-06-24T07:45:41;6.57;;;4.13;;
69502;SDS011;56704;54.242;12.442;2023-06-24T07:48:10;9.50;;;4.07;;
69502;SDS011;56704;54.242;12.442;2023-06-24T07:50:37;6.25;;;3.85;;
69502;SDS011;56704;54.242;12.442;2023-06-24T07:53:04;8.25;;;4.47;;
69502;SDS011;56704;54.242;12.442;2023-06-24T07:55:31;7.93;;;4.10;;
69502;SDS011;56704;54.242;12.442;2023-06-24T07:57:58;8.18;;;4.43;;
69502;SDS011;56704;54.242;12.442;2023-06-24T08:00:24;7.72;;;4.25;;
69502;SDS011;56704;54.242;12.442;2023-06-24T08:02:51;5.85;;;3.47;;
69502;SDS011;56704;54.242;12.442;2023-06-24T08:05:20;7.57;;;3.95;;
69502;SDS011;56704;54.242;12.442;2023-06-24T08:07:46;10.00;;;3.97;;
69502;SDS011;56704;54.242;12.442;2023-06-24T08:10:13;7.10;;;3.85;;
69502;SDS011;56704;54.242;12.442;2023-06-24T08:12:39;7.65;;;3.90;;
69502;SDS011;56704;54.242;12.442;2023-06-24T08:15:06;7.97;;;4.28;;
69502;SDS011;56704;54.242;12.442;2023-06-24T08:17:33;7.68;;;4.43;;
69502;SDS011;56704;54.242;12.442;2023-06-24T08:20:00;6.93;;;3.87;;
69502;SDS011;56704;54.242;12.442;2023-06-24T08:22:29;6.20;;;3.30;;
69502;SDS011;56704;54.242;12.442;2023-06-24T08:24:58;6.47;;;3.33;;
69502;SDS011;56704;54.242;12.442;2023-06-24T08:27:25;6.90;;;3.10;;
69502;SDS011;56704;54.242;12.442;2023-06-24T08:29:51;7.72;;;3.47;;
69502;SDS011;56704;54.242;12.442;2023-06-24T08:32:18;6.87;;;3.83;;
69502;SDS011;56704;54.242;12.442;2023-06-24T08:34:45;8.18;;;3.78;;
69502;SDS011;56704;54.242;12.442;2023-06-24T08:37:12;8.52;;;3.20;;
69502;SDS011;56704;54.242;12.442;2023-06-24T08:39:39;7.07;;;3.47;;
69502;SDS011;56704;54.242;12.442;2023-06-24T08:42:06;5.80;;;2.72;;
69502;SDS011;56704;54.242;12.442;2023-06-24T08:44:33;5.63;;;2.67;;
69502;SDS011;56704;54.242;12.442;2023-06-24T08:46:59;4.93;;;2.53;;
69502;SDS011;56704;54.242;12.442;2023-06-24T08:49:27;5.88;;;2.88;;
69502;SDS011;56704;54.242;12.442;2023-06-24T08:51:58;10.93;;;3.00;;
69502;SDS011;56704;54.242;12.442;2023-06-24T08:54:28;6.28;;;2.80;;
69502;SDS011;56704;54.242;12.442;2023-06-24T08:56:57;6.97;;;3.40;;
69502;SDS011;56704;54.242;12.442;2023-06-24T08:59:25;7.85;;;3.13;;
69502;SDS011;56704;54.242;12.442;2023-06-24T09:01:52;6.88;;;3.10;;
69502;SDS011;56704;54.242;12.442;2023-06-24T09:04:18;5.47;;;2.47;;
69502;SDS011;56704;54.242;12.442;2023-06-24T09:06:45;4.85;;;2.30;;
69502;SDS011;56704;54.242;12.442;2023-06-24T09:09:18;4.90;;;2.00;;
69502;SDS011;56704;54.242;12.442;2023-06-24T09:11:50;5.85;;;2.80;;
69502;SDS011;56704;54.242;12.442;2023-06-24T09:14:19;5.75;;;2.70;;
69502;SDS011;56704;54.242;12.442;2023-06-24T09:16:53;4.80;;;2.72;;
69502;SDS011;56704;54.242;12.442;2023-06-24T09:19:20;5.25;;;2.75;;
69502;SDS011;56704;54.242;12.442;2023-06-24T09:21:48;7.57;;;2.70;;
69502;SDS011;56704;54.242;12.442;2023-06-24T09:24:14;7.55;;;3.03;;
69502;SDS011;56704;54.242;12.442;2023-06-24T09:26:42;6.90;;;3.00;;
69502;SDS011;56704;54.242;12.442;2023-06-24T09:29:09;6.32;;;2.90;;
69502;SDS011;56704;54.242;12.442;2023-06-24T09:31:40;6.22;;;2.17;;
69502;SDS011;56704;54.242;12.442;2023-06-24T09:34:12;7.73;;;2.50;;
69502;SDS011;56704;54.242;12.442;2023-06-24T09:36:41;5.50;;;2.75;;
69502;SDS011;56704;54.242;12.442;2023-06-24T09:39:08;6.70;;;2.45;;
69502;SDS011;56704;54.242;12.442;2023-06-24T09:41:35;8.35;;;2.80;;
69502;SDS011;56704;54.242;12.442;2023-06-24T09:44:02;5.47;;;2.97;;
69502;SDS011;56704;54.242;12.442;2023-06-24T09:46:34;6.47;;;2.90;;
69502;SDS011;56704;54.242;12.442;2023-06-24T09:49:03;5.80;;;2.88;;
69502;SDS011;56704;54.242;12.442;2023-06-24T09:51:31;6.55;;;3.35;;
69502;SDS011;56704;54.242;12.442;2023-06-24T09:54:02;6.72;;;3.20;;
69502;SDS011;56704;54.242;12.442;2023-06-24T09:56:30;7.53;;;3.60;;
69502;SDS011;56704;54.242;12.442;2023-06-24T09:58:58;6.80;;;3.27;;
69502;SDS011;56704;54.242;12.442;2023-06-24T10:01:24;8.30;;;2.97;;
69502;SDS011;56704;54.242;12.442;2023-06-24T10:03:51;7.30;;;3.08;;
69502;SDS011;56704;54.242;12.442;2023-06-24T10:06:19;5.70;;;2.85;;
69502;SDS011;56704;54.242;12.442;2023-06-24T10:08:46;4.90;;;2.30;;
69502;SDS011;56704;54.242;12.442;2023-06-24T10:11:13;6.87;;;2.60;;
69502;SDS011;56704;54.242;12.442;2023-06-24T10:13:39;5.30;;;2.85;;
69502;SDS011;56704;54.242;12.442;2023-06-24T10:16:06;6.55;;;3.05;;
69502;SDS011;56704;54.242;12.442;2023-06-24T10:18:33;5.88;;;2.58;;
69502;SDS011;56704;54.242;12.442;2023-06-24T10:21:01;6.65;;;2.97;;
69502;SDS011;56704;54.242;12.442;2023-06-24T10:23:33;5.70;;;2.90;;
69502;SDS011;56704;54.242;12.442;2023-06-24T10:26:07;5.30;;;2.38;;
69502;SDS011;56704;54.242;12.442;2023-06-24T10:31:53;7.45;;;2.33;;
69502;SDS011;56704;54.242;12.442;2023-06-24T10:34:24;7.20;;;3.15;;
69502;SDS011;56704;54.242;12.442;2023-06-24T10:36:53;5.03;;;2.73;;
69502;SDS011;56704;54.242;12.442;2023-06-24T10:39:38;6.53;;;2.90;;
69502;SDS011;56704;54.242;12.442;2023-06-24T10:42:27;6.72;;;3.00;;
69502;SDS011;56704;54.242;12.442;2023-06-24T10:44:55;7.25;;;2.90;;
69502;SDS011;56704;54.242;12.442;2023-06-24T10:47:22;5.82;;;2.58;;
69502;SDS011;56704;54.242;12.442;2023-06-24T10:49:50;5.93;;;3.30;;
69502;SDS011;56704;54.242;12.442;2023-06-24T10:52:17;5.88;;;3.30;;
69502;SDS011;56704;54.242;12.442;2023-06-24T10:54:47;5.70;;;3.05;;
69502;SDS011;56704;54.242;12.442;2023-06-24T10:57:14;7.53;;;3.33;;
69502;SDS011;56704;54.242;12.442;2023-06-24T10:59:42;6.22;;;3.10;;
69502;SDS011;56704;54.242;12.442;2023-06-24T11:02:09;7.10;;;3.63;;
69502;SDS011;56704;54.242;12.442;2023-06-24T11:04:42;6.88;;;3.00;;
69502;SDS011;56704;54.242;12.442;2023-06-24T11:07:09;6.97;;;3.17;;
69502;SDS011;56704;54.242;12.442;2023-06-24T11:09:36;7.07;;;2.90;;
69502;SDS011;56704;54.242;12.442;2023-06-24T11:12:05;7.65;;;3.20;;
69502;SDS011;56704;54.242;12.442;2023-06-24T11:14:32;7.03;;;3.07;;
69502;SDS011;56704;54.242;12.442;2023-06-24T11:17:00;5.88;;;3.40;;
69502;SDS011;56704;54.242;12.442;2023-06-24T11:19:27;6.63;;;2.83;;
69502;SDS011;56704;54.242;12.442;2023-06-24T11:21:58;4.07;;;2.00;;
69502;SDS011;56704;54.242;12.442;2023-06-24T11:24:25;6.00;;;2.97;;
69502;SDS011;56704;54.242;12.442;2023-06-24T11:26:51;6.23;;;3.20;;
69502;SDS011;56704;54.242;12.442;2023-06-24T11:29:19;7.15;;;3.10;;
69502;SDS011;56704;54.242;12.442;2023-06-24T11:31:46;5.18;;;2.97;;
69502;SDS011;56704;54.242;12.442;2023-06-24T11:34:13;5.00;;;3.00;;
69502;SDS011;56704;54.242;12.442;2023-06-24T11:36:39;6.28;;;2.83;;
69502;SDS011;56704;54.242;12.442;2023-06-24T11:39:06;5.80;;;2.77;;
69502;SDS011;56704;54.242;12.442;2023-06-24T11:41:32;5.28;;;2.72;;
69502;SDS011;56704;54.242;12.442;2023-06-24T11:43:59;5.13;;;2.72;;
69502;SDS011;56704;54.242;12.442;2023-06-24T11:46:28;6.75;;;3.40;;
69502;SDS011;56704;54.242;12.442;2023-06-24T11:49:02;5.32;;;2.85;;
69502;SDS011;56704;54.242;12.442;2023-06-24T11:51:29;5.50;;;3.00;;
69502;SDS011;56704;54.242;12.442;2023-06-24T11:53:58;5.93;;;2.65;;
69502;SDS011;56704;54.242;12.442;2023-06-24T11:56:33;7.20;;;2.70;;
69502;SDS011;56704;54.242;12.442;2023-06-24T11:59:03;5.60;;;2.95;;
69502;SDS011;56704;54.242;12.442;2023-06-24T12:01:31;7.10;;;2.88;;
69502;SDS011;56704;54.242;12.442;2023-06-24T12:04:01;5.93;;;3.30;;
69502;SDS011;56704;54.242;12.442;2023-06-24T12:06:35;6.07;;;3.15;;
69502;SDS011;56704;54.242;12.442;2023-06-24T12:09:02;7.13;;;3.67;;
69502;SDS011;56704;54.242;12.442;2023-06-24T12:11:28;5.78;;;2.80;;
69502;SDS011;56704;54.242;12.442;2023-06-24T12:13:55;6.05;;;2.88;;
69502;SDS011;56704;54.242;12.442;2023-06-24T12:16:22;6.27;;;3.50;;
69502;SDS011;56704;54.242;12.442;2023-06-24T12:18:51;5.68;;;3.13;;
69502;SDS011;56704;54.242;12.442;2023-06-24T12:21:18;5.30;;;3.10;;
69502;SDS011;56704;54.242;12.442;2023-06-24T12:23:44;7.43;;;3.35;;
69502;SDS011;56704;54.242;12.442;2023-06-24T12:26:11;6.57;;;3.30;;
69502;SDS011;56704;54.242;12.442;2023-06-24T12:28:38;6.07;;;3.43;;
69502;SDS011;56704;54.242;12.442;2023-06-24T12:31:04;5.50;;;3.17;;
69502;SDS011;56704;54.242;12.442;2023-06-24T12:33:31;5.90;;;3.05;;
69502;SDS011;56704;54.242;12.442;2023-06-24T12:35:59;6.00;;;2.80;;
69502;SDS011;56704;54.242;12.442;2023-06-24T12:38:25;4.93;;;2.90;;
69502;SDS011;56704;54.242;12.442;2023-06-24T12:40:52;4.73;;;2.90;;
69502;SDS011;56704;54.242;12.442;2023-06-24T12:43:18;4.47;;;2.70;;
69502;SDS011;56704;54.242;12.442;2023-06-24T12:45:45;4.50;;;2.42;;
69502;SDS011;56704;54.242;12.442;2023-06-24T12:48:12;6.47;;;3.03;;
69502;SDS011;56704;54.242;12.442;2023-06-24T12:50:39;4.68;;;2.58;;
69502;SDS011;56704;54.242;12.442;2023-06-24T12:53:07;5.87;;;2.80;;
69502;SDS011;56704;54.242;12.442;2023-06-24T12:55:35;5.60;;;2.72;;
69502;SDS011;56704;54.242;12.442;2023-06-24T12:58:02;6.65;;;2.70;;
69502;SDS011;56704;54.242;12.442;2023-06-24T13:00:29;5.93;;;2.80;;
69502;SDS011;56704;54.242;12.442;2023-06-24T13:02:55;6.78;;;2.70;;
69502;SDS011;56704;54.242;12.442;2023-06-24T13:05:22;6.43;;;2.60;;
69502;SDS011;56704;54.242;12.442;2023-06-24T13:07:49;5.22;;;2.83;;
69502;SDS011;56704;54.242;12.442;2023-06-24T13:10:17;6.18;;;2.90;;
69502;SDS011;56704;54.242;12.442;2023-06-24T13:12:44;5.15;;;2.47;;
69502;SDS011;56704;54.242;12.442;2023-06-24T13:15:11;4.80;;;2.40;;
69502;SDS011;56704;54.242;12.442;2023-06-24T13:17:38;8.90;;;2.50;;
69502;SDS011;56704;54.242;12.442;2023-06-24T13:20:05;5.45;;;2.60;;
69502;SDS011;56704;54.242;12.442;2023-06-24T13:22:33;4.28;;;2.38;;
69502;SDS011;56704;54.242;12.442;2023-06-24T13:25:00;4.40;;;2.25;;
69502;SDS011;56704;54.242;12.442;2023-06-24T13:27:28;4.88;;;2.47;;
69502;SDS011;56704;54.242;12.442;2023-06-24T13:29:54;4.30;;;1.90;;
69502;SDS011;56704;54.242;12.442;2023-06-24T13:32:21;4.43;;;2.55;;
69502;SDS011;56704;54.242;12.442;2023-06-24T13:34:48;4.25;;;1.88;;
69502;SDS011;56704;54.242;12.442;2023-06-24T13:37:15;4.50;;;2.20;;
69502;SDS011;56704;54.242;12.442;2023-06-24T13:39:41;3.90;;;2.10;;
69502;SDS011;56704;54.242;12.442;2023-06-24T13:42:08;4.00;;;2.27;;
69502;SDS011;56704;54.242;12.442;2023-06-24T13:44:37;3.92;;;2.05;;
69502;SDS011;56704;54.242;12.442;2023-06-24T13:47:04;2.80;;;1.70;;
69502;SDS011;56704;54.242;12.442;2023-06-24T13:49:31;3.85;;;1.80;;
69502;SDS011;56704;54.242;12.442;2023-06-24T13:51:57;4.38;;;1.80;;
69502;SDS011;56704;54.242;12.442;2023-06-24T13:54:24;2.87;;;1.50;;
69502;SDS011;56704;54.242;12.442;2023-06-24T13:56:52;3.15;;;1.77;;
69502;SDS011;56704;54.242;12.442;2023-06-24T13:59:19;3.58;;;1.90;;
69502;SDS011;56704;54.242;12.442;2023-06-24T14:01:47;5.22;;;1.95;;
69502;SDS011;56704;54.242;12.442;2023-06-24T14:04:13;2.97;;;1.75;;
69502;SDS011;56704;54.242;12.442;2023-06-24T14:06:40;3.90;;;1.63;;
69502;SDS011;56704;54.242;12.442;2023-06-24T14:09:08;3.28;;;1.60;;
69502;SDS011;56704;54.242;12.442;2023-06-24T14:14:14;3.63;;;2.08;;
69502;SDS011;56704;54.242;12.442;2023-06-24T14:16:41;3.53;;;1.60;;
69502;SDS011;56704;54.242;12.442;2023-06-24T14:19:09;3.60;;;1.50;;
69502;SDS011;56704;54.242;12.442;2023-06-24T14:21:36;5.03;;;1.90;;
69502;SDS011;56704;54.242;12.442;2023-06-24T14:24:03;4.13;;;2.25;;
69502;SDS011;56704;54.242;12.442;2023-06-24T14:26:30;7.75;;;2.42;;
69502;SDS011;56704;54.242;12.442;2023-06-24T14:28:57;4.32;;;2.13;;
69502;SDS011;56704;54.242;12.442;2023-06-24T14:31:23;5.07;;;2.20;;
69502;SDS011;56704;54.242;12.442;2023-06-24T14:33:50;4.05;;;2.17;;
69502;SDS011;56704;54.242;12.442;2023-06-24T14:36:18;4.53;;;2.30;;
69502;SDS011;56704;54.242;12.442;2023-06-24T14:38:45;4.05;;;2.38;;
69502;SDS011;56704;54.242;12.442;2023-06-24T14:41:12;4.47;;;2.17;;
69502;SDS011;56704;54.242;12.442;2023-06-24T14:43:38;4.23;;;2.40;;
69502;SDS011;56704;54.242;12.442;2023-06-24T14:46:05;6.38;;;2.42;;
69502;SDS011;56704;54.242;12.442;2023-06-24T14:48:31;3.70;;;2.13;;
69502;SDS011;56704;54.242;12.442;2023-06-24T14:50:58;4.43;;;1.90;;
69502;SDS011;56704;54.242;12.442;2023-06-24T14:53:26;3.65;;;2.10;;
69502;SDS011;56704;54.242;12.442;2023-06-24T14:55:53;3.37;;;1.80;;
69502;SDS011;56704;54.242;12.442;2023-06-24T14:58:19;5.10;;;2.30;;
69502;SDS011;56704;54.242;12.442;2023-06-24T15:00:46;4.15;;;2.20;;
69502;SDS011;56704;54.242;12.442;2023-06-24T15:03:13;4.05;;;2.40;;
69502;SDS011;56704;54.242;12.442;2023-06-24T15:05:39;5.05;;;2.60;;
69502;SDS011;56704;54.242;12.442;2023-06-24T15:08:06;4.37;;;2.50;;
69502;SDS011;56704;54.242;12.442;2023-06-24T15:10:34;4.80;;;2.50;;
69502;SDS011;56704;54.242;12.442;2023-06-24T15:13:01;5.00;;;2.80;;
69502;SDS011;56704;54.242;12.442;2023-06-24T15:15:27;5.82;;;2.88;;
69502;SDS011;56704;54.242;12.442;2023-06-24T15:17:54;5.40;;;2.75;;
69502;SDS011;56704;54.242;12.442;2023-06-24T15:20:21;6.97;;;2.97;;
69502;SDS011;56704;54.242;12.442;2023-06-24T15:22:47;6.80;;;2.60;;
69502;SDS011;56704;54.242;12.442;2023-06-24T15:25:14;7.60;;;3.53;;
69502;SDS011;56704;54.242;12.442;2023-06-24T15:30:24;4.32;;;2.60;;
69502;SDS011;56704;54.242;12.442;2023-06-24T15:32:52;5.53;;;2.97;;
69502;SDS011;56704;54.242;12.442;2023-06-24T15:35:19;5.28;;;2.90;;
69502;SDS011;56704;54.242;12.442;2023-06-24T15:37:45;4.90;;;2.65;;
69502;SDS011;56704;54.242;12.442;2023-06-24T15:40:12;5.75;;;2.88;;
69502;SDS011;56704;54.242;12.442;2023-06-24T15:42:39;22.27;;;4.75;;
69502;SDS011;56704;54.242;12.442;2023-06-24T15:45:07;5.40;;;3.10;;
69502;SDS011;56704;54.242;12.442;2023-06-24T15:47:34;5.40;;;2.80;;
69502;SDS011;56704;54.242;12.442;2023-06-24T15:50:01;5.55;;;3.33;;
69502;SDS011;56704;54.242;12.442;2023-06-24T15:52:27;4.65;;;3.05;;
69502;SDS011;56704;54.242;12.442;2023-06-24T15:54:54;5.10;;;3.13;;
69502;SDS011;56704;54.242;12.442;2023-06-24T15:57:21;5.20;;;2.73;;
69502;SDS011;56704;54.242;12.442;2023-06-24T15:59:47;8.07;;;3.15;;
69502;SDS011;56704;54.242;12.442;2023-06-24T16:02:15;5.28;;;3.10;;
69502;SDS011;56704;54.242;12.442;2023-06-24T16:04:44;4.25;;;3.00;;
69502;SDS011;56704;54.242;12.442;2023-06-24T16:07:10;5.50;;;3.00;;
69502;SDS011;56704;54.242;12.442;2023-06-24T16:09:37;5.37;;;3.07;;
69502;SDS011;56704;54.242;12.442;2023-06-24T16:12:04;6.20;;;3.40;;
69502;SDS011;56704;54.242;12.442;2023-06-24T16:14:30;5.43;;;3.25;;
69502;SDS011;56704;54.242;12.442;2023-06-24T16:16:57;6.03;;;3.10;;
69502;SDS011;56704;54.242;12.442;2023-06-24T16:19:25;6.95;;;4.20;;
69502;SDS011;56704;54.242;12.442;2023-06-24T16:21:53;5.80;;;3.60;;
69502;SDS011;56704;54.242;12.442;2023-06-24T16:24:19;6.50;;;3.40;;
69502;SDS011;56704;54.242;12.442;2023-06-24T16:26:46;6.80;;;2.97;;
69502;SDS011;56704;54.242;12.442;2023-06-24T16:29:13;7.05;;;3.08;;
69502;SDS011;56704;54.242;12.442;2023-06-24T16:31:39;5.00;;;2.83;;
69502;SDS011;56704;54.242;12.442;2023-06-24T16:34:06;5.33;;;2.53;;
69502;SDS011;56704;54.242;12.442;2023-06-24T16:36:34;4.80;;;2.95;;
69502;SDS011;56704;54.242;12.442;2023-06-24T16:39:00;5.35;;;3.13;;
69502;SDS011;56704;54.242;12.442;2023-06-24T16:41:27;6.60;;;3.17;;
69502;SDS011;56704;54.242;12.442;2023-06-24T16:43:53;6.60;;;3.40;;
69502;SDS011;56704;54.242;12.442;2023-06-24T16:46:20;5.50;;;3.47;;
69502;SDS011;56704;54.242;12.442;2023-06-24T16:48:47;5.45;;;3.17;;
69502;SDS011;56704;54.242;12.442;2023-06-24T16:51:13;5.22;;;3.03;;
69502;SDS011;56704;54.242;12.442;2023-06-24T16:53:41;4.43;;;2.65;;
69502;SDS011;56704;54.242;12.442;2023-06-24T16:56:08;7.93;;;3.20;;
69502;SDS011;56704;54.242;12.442;2023-06-24T16:58:34;5.97;;;3.37;;
69502;SDS011;56704;54.242;12.442;2023-06-24T17:01:01;5.68;;;3.83;;
69502;SDS011;56704;54.242;12.442;2023-06-24T17:03:28;11.57;;;9.93;;
69502;SDS011;56704;54.242;12.442;2023-06-24T17:05:55;10.35;;;8.68;;
69502;SDS011;56704;54.242;12.442;2023-06-24T17:08:21;7.88;;;3.20;;
69502;SDS011;56704;54.242;12.442;2023-06-24T17:10:49;5.77;;;3.17;;
69502;SDS011;56704;54.242;12.442;2023-06-24T17:13:16;5.07;;;3.15;;
69502;SDS011;56704;54.242;12.442;2023-06-24T17:15:43;5.93;;;2.80;;
69502;SDS011;56704;54.242;12.442;2023-06-24T17:18:10;6.07;;;3.08;;
69502;SDS011;56704;54.242;12.442;2023-06-24T17:20:36;6.05;;;3.30;;
69502;SDS011;56704;54.242;12.442;2023-06-24T17:23:03;5.60;;;2.87;;
69502;SDS011;56704;54.242;12.442;2023-06-24T17:25:30;5.60;;;2.80;;
69502;SDS011;56704;54.242;12.442;2023-06-24T17:27:58;7.07;;;3.58;;
69502;SDS011;56704;54.242;12.442;2023-06-24T17:30:24;5.13;;;3.10;;